Pagina principale
METAR-TAF:

METAR-TAF

Aeroporti :

Capo Mele

Andora, Italia

latitudine: 43-57N, longitudine: 008-10E, altezza: 220 m

Osservazione

Il bollettino è stato emesso 48 minuti fa, alle 19:55 UTC
Vento 14 kt da nord/nord-est
Temperature 17°C
Umidità 42%
Pressione 1014 hPa
Visibilità 10 km o più
nessuna nube inferiore a 1500 m e nessun cumulonembo

METAR: LIMU 211955Z 02014KT CAVOK 17/04 Q1014 RMK OVC SCT060 SCT200 QUK / QUL / VIS MAR 50 KM VIS MIN 9999

Ora: 22:43 (20:43 UTC)


TAF: mancante

Osservazioni e previsioni meteorologiche di più di 4000 aeroporti (messaggi METAR e TAF).

Le stazioni disponibili sono rappresentate dai dischi gialli e rossi sulla carta.

Puntare il mouse per vedere il nome della stazione.

Clicca sopra per visualizzare le osservazioni e previsioni meteorologiche.

Per cambiare la mappa : fare clic sui pulsanti verdi con una croce nera per ingrandire, il pulsante verde con un trattino per diminuire, o sulla freccia verde per le mappe adiacenti.


METAR-TAF: